sensor_id;sensor_type;location;lat;lon;timestamp;temperature;humidity
11965;DHT22;6042;41.326;19.826;2023-03-04T00:01:59;11.30;99.90
11965;DHT22;6042;41.326;19.826;2023-03-04T00:04:27;11.30;99.90
11965;DHT22;6042;41.326;19.826;2023-03-04T00:06:56;11.40;99.90
11965;DHT22;6042;41.326;19.826;2023-03-04T00:09:24;11.30;99.90
11965;DHT22;6042;41.326;19.826;2023-03-04T00:11:52;11.30;99.90
11965;DHT22;6042;41.326;19.826;2023-03-04T00:14:21;11.30;99.90
11965;DHT22;6042;41.326;19.826;2023-03-04T00:16:51;11.30;99.90
11965;DHT22;6042;41.326;19.826;2023-03-04T00:19:19;11.20;99.90
11965;DHT22;6042;41.326;19.826;2023-03-04T00:21:48;11.20;99.90
11965;DHT22;6042;41.326;19.826;2023-03-04T00:24:16;11.20;99.90
11965;DHT22;6042;41.326;19.826;2023-03-04T00:26:44;11.30;99.90
11965;DHT22;6042;41.326;19.826;2023-03-04T00:29:13;11.30;99.90
11965;DHT22;6042;41.326;19.826;2023-03-04T00:31:42;11.30;99.90
11965;DHT22;6042;41.326;19.826;2023-03-04T00:34:11;11.40;99.90
11965;DHT22;6042;41.326;19.826;2023-03-04T00:36:40;11.40;99.90
11965;DHT22;6042;41.326;19.826;2023-03-04T00:39:10;11.40;99.90
11965;DHT22;6042;41.326;19.826;2023-03-04T00:41:38;11.40;99.90
11965;DHT22;6042;41.326;19.826;2023-03-04T00:44:07;11.40;99.90
11965;DHT22;6042;41.326;19.826;2023-03-04T00:46:35;11.40;99.90
11965;DHT22;6042;41.326;19.826;2023-03-04T00:49:03;11.40;99.90
11965;DHT22;6042;41.326;19.826;2023-03-04T00:51:33;11.50;99.90
11965;DHT22;6042;41.326;19.826;2023-03-04T00:54:02;11.40;99.90
11965;DHT22;6042;41.326;19.826;2023-03-04T00:56:30;11.50;99.90
11965;DHT22;6042;41.326;19.826;2023-03-04T00:58:59;11.50;99.90
11965;DHT22;6042;41.326;19.826;2023-03-04T01:01:27;11.40;99.90
11965;DHT22;6042;41.326;19.826;2023-03-04T01:03:56;11.40;99.90
11965;DHT22;6042;41.326;19.826;2023-03-04T01:06:25;11.30;99.90
11965;DHT22;6042;41.326;19.826;2023-03-04T01:08:55;11.10;99.90
11965;DHT22;6042;41.326;19.826;2023-03-04T01:11:24;11.20;99.90
11965;DHT22;6042;41.326;19.826;2023-03-04T01:13:52;11.20;99.90
11965;DHT22;6042;41.326;19.826;2023-03-04T01:16:20;11.20;99.90
11965;DHT22;6042;41.326;19.826;2023-03-04T01:18:49;11.20;99.90
11965;DHT22;6042;41.326;19.826;2023-03-04T01:21:17;11.20;99.90
11965;DHT22;6042;41.326;19.826;2023-03-04T01:23:45;11.20;99.90
11965;DHT22;6042;41.326;19.826;2023-03-04T01:26:15;11.10;99.90
11965;DHT22;6042;41.326;19.826;2023-03-04T01:28:46;11.20;99.90
11965;DHT22;6042;41.326;19.826;2023-03-04T01:31:14;11.20;99.90
11965;DHT22;6042;41.326;19.826;2023-03-04T01:33:43;11.30;99.90
11965;DHT22;6042;41.326;19.826;2023-03-04T01:36:12;11.20;99.90
11965;DHT22;6042;41.326;19.826;2023-03-04T01:38:40;11.20;99.90
11965;DHT22;6042;41.326;19.826;2023-03-04T01:41:11;11.10;99.90
11965;DHT22;6042;41.326;19.826;2023-03-04T01:43:41;11.10;99.90
11965;DHT22;6042;41.326;19.826;2023-03-04T01:46:11;11.10;99.90
11965;DHT22;6042;41.326;19.826;2023-03-04T01:48:41;11.10;99.90
11965;DHT22;6042;41.326;19.826;2023-03-04T01:51:12;11.10;99.90
11965;DHT22;6042;41.326;19.826;2023-03-04T01:53:42;11.00;99.90
11965;DHT22;6042;41.326;19.826;2023-03-04T01:56:14;11.00;99.90
11965;DHT22;6042;41.326;19.826;2023-03-04T01:58:44;11.00;99.90
11965;DHT22;6042;41.326;19.826;2023-03-04T02:01:13;10.90;99.90
11965;DHT22;6042;41.326;19.826;2023-03-04T02:03:42;10.80;99.90
11965;DHT22;6042;41.326;19.826;2023-03-04T02:06:10;10.90;99.90
11965;DHT22;6042;41.326;19.826;2023-03-04T02:08:39;10.70;99.90
11965;DHT22;6042;41.326;19.826;2023-03-04T02:11:07;10.80;99.90
11965;DHT22;6042;41.326;19.826;2023-03-04T02:13:36;10.90;99.90
11965;DHT22;6042;41.326;19.826;2023-03-04T02:16:06;11.00;99.90
11965;DHT22;6042;41.326;19.826;2023-03-04T02:18:34;10.90;99.90
11965;DHT22;6042;41.326;19.826;2023-03-04T02:21:07;11.00;99.90
11965;DHT22;6042;41.326;19.826;2023-03-04T02:23:42;11.00;99.90
11965;DHT22;6042;41.326;19.826;2023-03-04T02:26:17;11.00;99.90
11965;DHT22;6042;41.326;19.826;2023-03-04T02:28:50;11.00;99.90
11965;DHT22;6042;41.326;19.826;2023-03-04T02:31:24;11.00;99.90
11965;DHT22;6042;41.326;19.826;2023-03-04T02:33:57;11.10;99.90
11965;DHT22;6042;41.326;19.826;2023-03-04T02:36:27;11.20;99.90
11965;DHT22;6042;41.326;19.826;2023-03-04T02:39:01;11.30;99.90
11965;DHT22;6042;41.326;19.826;2023-03-04T02:41:31;11.30;99.90
11965;DHT22;6042;41.326;19.826;2023-03-04T02:44:00;11.30;99.90
11965;DHT22;6042;41.326;19.826;2023-03-04T02:46:29;11.40;99.90
11965;DHT22;6042;41.326;19.826;2023-03-04T02:48:57;11.30;99.90
11965;DHT22;6042;41.326;19.826;2023-03-04T02:51:27;11.20;99.90
11965;DHT22;6042;41.326;19.826;2023-03-04T02:53:55;11.20;99.90
11965;DHT22;6042;41.326;19.826;2023-03-04T02:56:24;11.20;99.90
11965;DHT22;6042;41.326;19.826;2023-03-04T02:58:54;11.20;99.90
11965;DHT22;6042;41.326;19.826;2023-03-04T03:01:27;11.30;99.90
11965;DHT22;6042;41.326;19.826;2023-03-04T03:03:56;11.20;99.90
11965;DHT22;6042;41.326;19.826;2023-03-04T03:06:24;11.30;99.90
11965;DHT22;6042;41.326;19.826;2023-03-04T03:08:54;11.20;99.90
11965;DHT22;6042;41.326;19.826;2023-03-04T03:11:22;11.10;99.90
11965;DHT22;6042;41.326;19.826;2023-03-04T03:13:55;11.00;99.90
11965;DHT22;6042;41.326;19.826;2023-03-04T03:16:24;10.90;99.90
11965;DHT22;6042;41.326;19.826;2023-03-04T03:18:53;10.80;99.90
11965;DHT22;6042;41.326;19.826;2023-03-04T03:21:22;10.70;99.90
11965;DHT22;6042;41.326;19.826;2023-03-04T03:23:50;10.50;99.90
11965;DHT22;6042;41.326;19.826;2023-03-04T03:26:19;10.40;99.90
11965;DHT22;6042;41.326;19.826;2023-03-04T03:28:47;10.30;99.90
11965;DHT22;6042;41.326;19.826;2023-03-04T03:31:17;10.20;99.90
11965;DHT22;6042;41.326;19.826;2023-03-04T03:33:46;10.20;99.90
11965;DHT22;6042;41.326;19.826;2023-03-04T03:36:14;10.10;99.90
11965;DHT22;6042;41.326;19.826;2023-03-04T03:38:42;10.00;99.90
11965;DHT22;6042;41.326;19.826;2023-03-04T03:41:11;9.90;99.90
11965;DHT22;6042;41.326;19.826;2023-03-04T03:43:39;9.90;99.90
11965;DHT22;6042;41.326;19.826;2023-03-04T03:46:07;9.90;99.90
11965;DHT22;6042;41.326;19.826;2023-03-04T03:48:37;9.80;99.90
11965;DHT22;6042;41.326;19.826;2023-03-04T03:51:06;9.70;99.90
11965;DHT22;6042;41.326;19.826;2023-03-04T03:53:34;9.70;99.90
11965;DHT22;6042;41.326;19.826;2023-03-04T03:56:03;9.60;99.90
11965;DHT22;6042;41.326;19.826;2023-03-04T03:58:31;9.50;99.90
11965;DHT22;6042;41.326;19.826;2023-03-04T04:01:00;9.40;99.90
11965;DHT22;6042;41.326;19.826;2023-03-04T04:03:29;9.30;99.90
11965;DHT22;6042;41.326;19.826;2023-03-04T04:05:59;9.40;99.90
11965;DHT22;6042;41.326;19.826;2023-03-04T04:08:28;9.30;99.90
11965;DHT22;6042;41.326;19.826;2023-03-04T04:10:56;9.30;99.90
11965;DHT22;6042;41.326;19.826;2023-03-04T04:13:24;9.40;99.90
11965;DHT22;6042;41.326;19.826;2023-03-04T04:15:53;9.40;99.90
11965;DHT22;6042;41.326;19.826;2023-03-04T04:18:21;9.40;99.90
11965;DHT22;6042;41.326;19.826;2023-03-04T04:20:52;9.50;99.90
11965;DHT22;6042;41.326;19.826;2023-03-04T04:23:22;9.60;99.90
11965;DHT22;6042;41.326;19.826;2023-03-04T04:25:53;9.60;99.90
11965;DHT22;6042;41.326;19.826;2023-03-04T04:28:22;9.60;99.90
11965;DHT22;6042;41.326;19.826;2023-03-04T04:30:50;9.70;99.90
11965;DHT22;6042;41.326;19.826;2023-03-04T04:33:19;9.70;99.90
11965;DHT22;6042;41.326;19.826;2023-03-04T04:35:48;9.80;99.90
11965;DHT22;6042;41.326;19.826;2023-03-04T04:38:16;9.80;99.90
11965;DHT22;6042;41.326;19.826;2023-03-04T04:40:46;9.90;99.90
11965;DHT22;6042;41.326;19.826;2023-03-04T04:43:14;10.00;99.90
11965;DHT22;6042;41.326;19.826;2023-03-04T04:45:43;10.00;99.90
11965;DHT22;6042;41.326;19.826;2023-03-04T04:48:11;10.00;99.90
11965;DHT22;6042;41.326;19.826;2023-03-04T04:50:40;10.10;99.90
11965;DHT22;6042;41.326;19.826;2023-03-04T04:53:10;10.20;99.90
11965;DHT22;6042;41.326;19.826;2023-03-04T04:55:39;10.10;99.90
11965;DHT22;6042;41.326;19.826;2023-03-04T04:58:08;10.10;99.90
11965;DHT22;6042;41.326;19.826;2023-03-04T05:00:37;10.20;99.90
11965;DHT22;6042;41.326;19.826;2023-03-04T05:03:05;10.20;99.90
11965;DHT22;6042;41.326;19.826;2023-03-04T05:05:34;10.10;99.90
11965;DHT22;6042;41.326;19.826;2023-03-04T05:08:02;10.10;99.90
11965;DHT22;6042;41.326;19.826;2023-03-04T05:10:31;10.10;99.90
11965;DHT22;6042;41.326;19.826;2023-03-04T05:12:59;10.00;99.90
11965;DHT22;6042;41.326;19.826;2023-03-04T05:15:29;10.10;99.90
11965;DHT22;6042;41.326;19.826;2023-03-04T05:17:57;10.10;99.90
11965;DHT22;6042;41.326;19.826;2023-03-04T05:20:26;10.10;99.90
11965;DHT22;6042;41.326;19.826;2023-03-04T05:22:54;10.10;99.90
11965;DHT22;6042;41.326;19.826;2023-03-04T05:25:23;10.10;99.90
11965;DHT22;6042;41.326;19.826;2023-03-04T05:27:51;10.10;99.90
11965;DHT22;6042;41.326;19.826;2023-03-04T05:30:20;10.00;99.90
11965;DHT22;6042;41.326;19.826;2023-03-04T05:32:50;10.10;99.90
11965;DHT22;6042;41.326;19.826;2023-03-04T05:35:18;10.00;99.90
11965;DHT22;6042;41.326;19.826;2023-03-04T05:37:46;9.90;99.90
11965;DHT22;6042;41.326;19.826;2023-03-04T05:40:15;10.00;99.90
11965;DHT22;6042;41.326;19.826;2023-03-04T05:42:43;10.10;99.90
11965;DHT22;6042;41.326;19.826;2023-03-04T05:45:12;10.00;99.90
11965;DHT22;6042;41.326;19.826;2023-03-04T05:47:40;10.00;99.90
11965;DHT22;6042;41.326;19.826;2023-03-04T05:50:11;10.10;99.90
11965;DHT22;6042;41.326;19.826;2023-03-04T05:52:40;10.20;99.90
11965;DHT22;6042;41.326;19.826;2023-03-04T05:55:09;10.30;99.90
11965;DHT22;6042;41.326;19.826;2023-03-04T05:57:37;10.40;99.90
11965;DHT22;6042;41.326;19.826;2023-03-04T06:00:07;10.50;99.90
11965;DHT22;6042;41.326;19.826;2023-03-04T06:02:40;10.60;99.90
11965;DHT22;6042;41.326;19.826;2023-03-04T06:05:11;10.60;99.90
11965;DHT22;6042;41.326;19.826;2023-03-04T06:07:40;10.70;99.90
11965;DHT22;6042;41.326;19.826;2023-03-04T06:10:10;10.80;99.90
11965;DHT22;6042;41.326;19.826;2023-03-04T06:12:39;10.80;99.90
11965;DHT22;6042;41.326;19.826;2023-03-04T06:15:08;10.80;99.90
11965;DHT22;6042;41.326;19.826;2023-03-04T06:17:37;10.80;99.90
11965;DHT22;6042;41.326;19.826;2023-03-04T06:20:11;10.90;99.90
11965;DHT22;6042;41.326;19.826;2023-03-04T06:22:39;10.80;99.90
11965;DHT22;6042;41.326;19.826;2023-03-04T06:25:08;10.80;99.90
11965;DHT22;6042;41.326;19.826;2023-03-04T06:27:37;10.80;99.90
11965;DHT22;6042;41.326;19.826;2023-03-04T06:30:06;11.00;99.90
11965;DHT22;6042;41.326;19.826;2023-03-04T06:32:35;11.00;99.90
11965;DHT22;6042;41.326;19.826;2023-03-04T06:35:04;11.00;99.90
11965;DHT22;6042;41.326;19.826;2023-03-04T06:37:34;10.90;99.90
11965;DHT22;6042;41.326;19.826;2023-03-04T06:40:03;10.90;99.90
11965;DHT22;6042;41.326;19.826;2023-03-04T06:42:32;10.90;99.90
11965;DHT22;6042;41.326;19.826;2023-03-04T06:45:01;10.90;99.90
11965;DHT22;6042;41.326;19.826;2023-03-04T06:47:30;11.00;99.90
11965;DHT22;6042;41.326;19.826;2023-03-04T06:49:58;11.20;99.90
11965;DHT22;6042;41.326;19.826;2023-03-04T06:52:27;11.30;99.90
11965;DHT22;6042;41.326;19.826;2023-03-04T06:54:57;11.00;99.90
11965;DHT22;6042;41.326;19.826;2023-03-04T06:57:25;10.80;99.90
11965;DHT22;6042;41.326;19.826;2023-03-04T06:59:53;10.90;99.90
11965;DHT22;6042;41.326;19.826;2023-03-04T07:02:23;10.90;99.90
11965;DHT22;6042;41.326;19.826;2023-03-04T07:04:52;11.00;99.90
11965;DHT22;6042;41.326;19.826;2023-03-04T07:07:20;11.30;99.90
11965;DHT22;6042;41.326;19.826;2023-03-04T07:09:48;11.30;99.90
11965;DHT22;6042;41.326;19.826;2023-03-04T07:12:18;11.50;99.90
11965;DHT22;6042;41.326;19.826;2023-03-04T07:14:47;11.70;99.90
11965;DHT22;6042;41.326;19.826;2023-03-04T07:17:15;11.80;99.90
11965;DHT22;6042;41.326;19.826;2023-03-04T07:19:43;11.70;99.90
11965;DHT22;6042;41.326;19.826;2023-03-04T07:22:12;11.80;99.90
11965;DHT22;6042;41.326;19.826;2023-03-04T07:24:40;11.80;99.90
11965;DHT22;6042;41.326;19.826;2023-03-04T07:27:09;11.80;99.90
11965;DHT22;6042;41.326;19.826;2023-03-04T07:29:38;11.80;99.90
11965;DHT22;6042;41.326;19.826;2023-03-04T07:32:07;11.80;99.90
11965;DHT22;6042;41.326;19.826;2023-03-04T07:34:36;11.90;99.90
11965;DHT22;6042;41.326;19.826;2023-03-04T07:37:04;12.00;99.90
11965;DHT22;6042;41.326;19.826;2023-03-04T07:39:33;12.10;99.90
11965;DHT22;6042;41.326;19.826;2023-03-04T07:42:01;12.20;99.90
11965;DHT22;6042;41.326;19.826;2023-03-04T07:44:30;12.30;99.90
11965;DHT22;6042;41.326;19.826;2023-03-04T07:46:59;12.30;99.90
11965;DHT22;6042;41.326;19.826;2023-03-04T07:49:28;12.30;99.90
11965;DHT22;6042;41.326;19.826;2023-03-04T07:51:56;12.20;99.90
11965;DHT22;6042;41.326;19.826;2023-03-04T07:54:25;12.10;99.90
11965;DHT22;6042;41.326;19.826;2023-03-04T07:56:53;12.10;99.90
11965;DHT22;6042;41.326;19.826;2023-03-04T07:59:21;12.10;99.90
11965;DHT22;6042;41.326;19.826;2023-03-04T08:01:50;12.30;99.90
11965;DHT22;6042;41.326;19.826;2023-03-04T08:04:20;12.30;99.90
11965;DHT22;6042;41.326;19.826;2023-03-04T08:06:48;12.00;99.90
11965;DHT22;6042;41.326;19.826;2023-03-04T08:09:17;11.70;99.90
11965;DHT22;6042;41.326;19.826;2023-03-04T08:11:45;11.80;99.90
11965;DHT22;6042;41.326;19.826;2023-03-04T08:14:14;11.90;99.90
11965;DHT22;6042;41.326;19.826;2023-03-04T08:16:43;12.20;99.90
11965;DHT22;6042;41.326;19.826;2023-03-04T08:19:11;12.40;99.90
11965;DHT22;6042;41.326;19.826;2023-03-04T08:21:41;12.60;99.90
11965;DHT22;6042;41.326;19.826;2023-03-04T08:24:10;12.80;99.90
11965;DHT22;6042;41.326;19.826;2023-03-04T08:26:41;12.90;99.90
11965;DHT22;6042;41.326;19.826;2023-03-04T08:29:13;13.00;99.90
11965;DHT22;6042;41.326;19.826;2023-03-04T08:31:42;13.10;99.90
11965;DHT22;6042;41.326;19.826;2023-03-04T08:34:15;13.00;99.90
11965;DHT22;6042;41.326;19.826;2023-03-04T08:36:46;13.20;99.90
11965;DHT22;6042;41.326;19.826;2023-03-04T08:39:16;13.20;99.90
11965;DHT22;6042;41.326;19.826;2023-03-04T08:41:46;13.40;99.90
11965;DHT22;6042;41.326;19.826;2023-03-04T08:44:15;13.70;99.90
11965;DHT22;6042;41.326;19.826;2023-03-04T08:46:43;13.80;99.90
11965;DHT22;6042;41.326;19.826;2023-03-04T08:49:14;14.00;99.90
11965;DHT22;6042;41.326;19.826;2023-03-04T08:51:50;14.10;99.90
11965;DHT22;6042;41.326;19.826;2023-03-04T08:54:19;14.20;99.90
11965;DHT22;6042;41.326;19.826;2023-03-04T08:56:47;14.20;99.90
11965;DHT22;6042;41.326;19.826;2023-03-04T08:59:16;14.20;99.90
11965;DHT22;6042;41.326;19.826;2023-03-04T09:01:44;14.20;99.90
11965;DHT22;6042;41.326;19.826;2023-03-04T09:04:16;14.20;99.90
11965;DHT22;6042;41.326;19.826;2023-03-04T09:06:44;14.00;99.90
11965;DHT22;6042;41.326;19.826;2023-03-04T09:09:14;13.80;99.90
11965;DHT22;6042;41.326;19.826;2023-03-04T09:11:43;13.70;99.90
11965;DHT22;6042;41.326;19.826;2023-03-04T09:14:11;13.60;99.90
11965;DHT22;6042;41.326;19.826;2023-03-04T09:16:39;13.50;99.90
11965;DHT22;6042;41.326;19.826;2023-03-04T09:19:08;13.50;99.90
11965;DHT22;6042;41.326;19.826;2023-03-04T09:21:36;13.40;99.90
11965;DHT22;6042;41.326;19.826;2023-03-04T09:24:05;13.40;99.90
11965;DHT22;6042;41.326;19.826;2023-03-04T09:26:35;13.20;99.90
11965;DHT22;6042;41.326;19.826;2023-03-04T09:29:03;13.20;99.90
11965;DHT22;6042;41.326;19.826;2023-03-04T09:31:32;13.20;99.90
11965;DHT22;6042;41.326;19.826;2023-03-04T09:34:01;13.10;99.90
11965;DHT22;6042;41.326;19.826;2023-03-04T09:36:29;13.10;99.90
11965;DHT22;6042;41.326;19.826;2023-03-04T09:38:58;13.00;99.90
11965;DHT22;6042;41.326;19.826;2023-03-04T09:41:37;12.90;99.90
11965;DHT22;6042;41.326;19.826;2023-03-04T09:44:13;12.80;99.90
11965;DHT22;6042;41.326;19.826;2023-03-04T09:46:43;12.80;99.90
11965;DHT22;6042;41.326;19.826;2023-03-04T09:49:12;12.80;99.90
11965;DHT22;6042;41.326;19.826;2023-03-04T09:51:46;12.80;99.90
11965;DHT22;6042;41.326;19.826;2023-03-04T09:54:25;12.80;99.90
11965;DHT22;6042;41.326;19.826;2023-03-04T09:57:05;12.80;99.90
11965;DHT22;6042;41.326;19.826;2023-03-04T09:59:45;13.00;99.90
11965;DHT22;6042;41.326;19.826;2023-03-04T10:02:25;13.30;99.90
11965;DHT22;6042;41.326;19.826;2023-03-04T10:04:58;13.50;99.90
11965;DHT22;6042;41.326;19.826;2023-03-04T10:07:32;13.50;99.90
11965;DHT22;6042;41.326;19.826;2023-03-04T10:10:04;13.50;99.90
11965;DHT22;6042;41.326;19.826;2023-03-04T10:12:37;13.40;99.90
11965;DHT22;6042;41.326;19.826;2023-03-04T10:15:20;13.40;99.90
11965;DHT22;6042;41.326;19.826;2023-03-04T10:17:53;13.40;99.90
11965;DHT22;6042;41.326;19.826;2023-03-04T10:20:25;13.40;99.90
11965;DHT22;6042;41.326;19.826;2023-03-04T10:22:57;13.30;99.90
11965;DHT22;6042;41.326;19.826;2023-03-04T10:25:31;13.20;99.90
11965;DHT22;6042;41.326;19.826;2023-03-04T10:28:03;13.20;99.90
11965;DHT22;6042;41.326;19.826;2023-03-04T10:30:40;13.10;99.90
11965;DHT22;6042;41.326;19.826;2023-03-04T10:33:12;13.20;99.90
11965;DHT22;6042;41.326;19.826;2023-03-04T10:35:44;13.20;99.90
11965;DHT22;6042;41.326;19.826;2023-03-04T10:38:14;13.30;99.90
11965;DHT22;6042;41.326;19.826;2023-03-04T10:40:43;13.30;99.90
11965;DHT22;6042;41.326;19.826;2023-03-04T10:43:17;13.30;99.90
11965;DHT22;6042;41.326;19.826;2023-03-04T10:45:47;13.40;99.90
11965;DHT22;6042;41.326;19.826;2023-03-04T10:48:21;13.60;99.90
11965;DHT22;6042;41.326;19.826;2023-03-04T10:50:50;13.70;99.90
11965;DHT22;6042;41.326;19.826;2023-03-04T10:53:27;13.70;99.90
11965;DHT22;6042;41.326;19.826;2023-03-04T10:55:56;13.70;99.90
11965;DHT22;6042;41.326;19.826;2023-03-04T10:58:26;13.70;99.90
11965;DHT22;6042;41.326;19.826;2023-03-04T11:01:03;13.80;99.90
11965;DHT22;6042;41.326;19.826;2023-03-04T11:03:34;14.00;99.90
11965;DHT22;6042;41.326;19.826;2023-03-04T11:06:11;14.30;99.90
11965;DHT22;6042;41.326;19.826;2023-03-04T11:08:43;14.80;99.90
11965;DHT22;6042;41.326;19.826;2023-03-04T11:11:22;15.00;99.90
11965;DHT22;6042;41.326;19.826;2023-03-04T11:13:55;15.40;99.90
11965;DHT22;6042;41.326;19.826;2023-03-04T11:16:26;15.70;99.90
11965;DHT22;6042;41.326;19.826;2023-03-04T11:18:58;15.80;99.90
11965;DHT22;6042;41.326;19.826;2023-03-04T11:21:33;16.00;99.90
11965;DHT22;6042;41.326;19.826;2023-03-04T11:24:11;16.10;99.90
11965;DHT22;6042;41.326;19.826;2023-03-04T11:27:00;16.10;99.90
11965;DHT22;6042;41.326;19.826;2023-03-04T11:29:34;16.30;99.90
11965;DHT22;6042;41.326;19.826;2023-03-04T11:32:08;16.30;99.90
11965;DHT22;6042;41.326;19.826;2023-03-04T11:34:42;16.00;99.90
11965;DHT22;6042;41.326;19.826;2023-03-04T11:37:17;15.60;99.90
11965;DHT22;6042;41.326;19.826;2023-03-04T11:39:53;15.30;99.90
11965;DHT22;6042;41.326;19.826;2023-03-04T11:42:32;15.10;99.90
11965;DHT22;6042;41.326;19.826;2023-03-04T11:45:07;14.90;99.90
11965;DHT22;6042;41.326;19.826;2023-03-04T11:47:59;14.80;99.90
11965;DHT22;6042;41.326;19.826;2023-03-04T11:50:40;14.90;99.90
11965;DHT22;6042;41.326;19.826;2023-03-04T11:53:30;14.90;99.90
11965;DHT22;6042;41.326;19.826;2023-03-04T11:56:25;14.70;99.90
11965;DHT22;6042;41.326;19.826;2023-03-04T11:59:05;14.80;99.90
11965;DHT22;6042;41.326;19.826;2023-03-04T12:01:46;14.80;99.90
11965;DHT22;6042;41.326;19.826;2023-03-04T12:04:36;14.80;99.90
11965;DHT22;6042;41.326;19.826;2023-03-04T12:07:19;14.80;99.90
11965;DHT22;6042;41.326;19.826;2023-03-04T12:09:59;15.00;99.90
11965;DHT22;6042;41.326;19.826;2023-03-04T12:12:46;15.10;99.90
11965;DHT22;6042;41.326;19.826;2023-03-04T12:15:26;15.30;99.90
11965;DHT22;6042;41.326;19.826;2023-03-04T12:18:09;15.40;99.90
11965;DHT22;6042;41.326;19.826;2023-03-04T12:21:00;15.50;99.90
11965;DHT22;6042;41.326;19.826;2023-03-04T12:24:17;15.80;99.90
11965;DHT22;6042;41.326;19.826;2023-03-04T12:26:51;16.20;99.00
11965;DHT22;6042;41.326;19.826;2023-03-04T12:29:30;16.60;97.90
11965;DHT22;6042;41.326;19.826;2023-03-04T12:32:06;16.90;97.80
11965;DHT22;6042;41.326;19.826;2023-03-04T12:34:51;17.00;97.10
11965;DHT22;6042;41.326;19.826;2023-03-04T12:37:38;17.20;96.80
11965;DHT22;6042;41.326;19.826;2023-03-04T12:40:42;17.20;96.70
11965;DHT22;6042;41.326;19.826;2023-03-04T12:43:32;17.40;97.30
11965;DHT22;6042;41.326;19.826;2023-03-04T12:46:14;17.50;96.70
11965;DHT22;6042;41.326;19.826;2023-03-04T12:48:51;17.60;95.60
11965;DHT22;6042;41.326;19.826;2023-03-04T12:51:28;17.50;96.20
11965;DHT22;6042;41.326;19.826;2023-03-04T12:54:07;17.50;96.20
11965;DHT22;6042;41.326;19.826;2023-03-04T12:56:43;17.50;96.60
11965;DHT22;6042;41.326;19.826;2023-03-04T12:59:16;17.80;95.90
11965;DHT22;6042;41.326;19.826;2023-03-04T13:01:52;17.70;95.70
11965;DHT22;6042;41.326;19.826;2023-03-04T13:04:26;17.90;95.80
11965;DHT22;6042;41.326;19.826;2023-03-04T13:07:07;18.20;95.20
11965;DHT22;6042;41.326;19.826;2023-03-04T13:09:46;18.30;94.60
11965;DHT22;6042;41.326;19.826;2023-03-04T13:12:18;18.80;94.50
11965;DHT22;6042;41.326;19.826;2023-03-04T13:15:17;19.60;93.30
11965;DHT22;6042;41.326;19.826;2023-03-04T13:17:47;20.20;92.50
11965;DHT22;6042;41.326;19.826;2023-03-04T13:20:23;20.90;91.40
11965;DHT22;6042;41.326;19.826;2023-03-04T13:22:55;20.90;90.60
11965;DHT22;6042;41.326;19.826;2023-03-04T13:25:34;20.70;90.90
11965;DHT22;6042;41.326;19.826;2023-03-04T13:28:23;19.70;91.30
11965;DHT22;6042;41.326;19.826;2023-03-04T13:31:12;19.20;91.70
11965;DHT22;6042;41.326;19.826;2023-03-04T13:33:49;18.60;92.70
11965;DHT22;6042;41.326;19.826;2023-03-04T13:39:36;18.10;94.10
11965;DHT22;6042;41.326;19.826;2023-03-04T13:42:38;17.90;93.90
11965;DHT22;6042;41.326;19.826;2023-03-04T13:45:29;17.70;93.90
11965;DHT22;6042;41.326;19.826;2023-03-04T13:48:00;17.60;94.60
11965;DHT22;6042;41.326;19.826;2023-03-04T13:50:35;17.60;94.50
11965;DHT22;6042;41.326;19.826;2023-03-04T13:56:24;17.60;94.50
11965;DHT22;6042;41.326;19.826;2023-03-04T14:02:10;17.70;93.30
11965;DHT22;6042;41.326;19.826;2023-03-04T14:04:42;17.70;93.30
11965;DHT22;6042;41.326;19.826;2023-03-04T14:07:20;17.60;93.50
11965;DHT22;6042;41.326;19.826;2023-03-04T14:09:57;17.50;94.00
11965;DHT22;6042;41.326;19.826;2023-03-04T14:12:29;17.20;94.00
11965;DHT22;6042;41.326;19.826;2023-03-04T14:15:00;17.10;94.80
11965;DHT22;6042;41.326;19.826;2023-03-04T14:17:44;17.00;94.80
11965;DHT22;6042;41.326;19.826;2023-03-04T14:20:22;16.90;94.30
11965;DHT22;6042;41.326;19.826;2023-03-04T14:22:52;16.70;94.00
11965;DHT22;6042;41.326;19.826;2023-03-04T14:25:22;16.60;94.20
11965;DHT22;6042;41.326;19.826;2023-03-04T14:28:03;16.50;94.40
11965;DHT22;6042;41.326;19.826;2023-03-04T14:30:35;16.50;94.40
11965;DHT22;6042;41.326;19.826;2023-03-04T14:33:16;16.40;95.20
11965;DHT22;6042;41.326;19.826;2023-03-04T14:35:48;16.40;94.70
11965;DHT22;6042;41.326;19.826;2023-03-04T14:38:22;16.40;95.10
11965;DHT22;6042;41.326;19.826;2023-03-04T14:40:53;16.40;95.00
11965;DHT22;6042;41.326;19.826;2023-03-04T14:43:23;16.30;94.90
11965;DHT22;6042;41.326;19.826;2023-03-04T14:45:54;16.30;96.00
11965;DHT22;6042;41.326;19.826;2023-03-04T14:48:26;16.30;95.20
11965;DHT22;6042;41.326;19.826;2023-03-04T14:50:55;16.30;95.20
11965;DHT22;6042;41.326;19.826;2023-03-04T14:53:25;16.20;95.40
11965;DHT22;6042;41.326;19.826;2023-03-04T14:55:55;16.20;95.70
11965;DHT22;6042;41.326;19.826;2023-03-04T14:58:27;16.20;95.40
11965;DHT22;6042;41.326;19.826;2023-03-04T15:01:06;16.00;95.80
11965;DHT22;6042;41.326;19.826;2023-03-04T15:03:35;15.90;96.50
11965;DHT22;6042;41.326;19.826;2023-03-04T15:06:17;15.90;96.80
11965;DHT22;6042;41.326;19.826;2023-03-04T15:08:46;15.90;96.60
11965;DHT22;6042;41.326;19.826;2023-03-04T15:11:23;15.90;97.30
11965;DHT22;6042;41.326;19.826;2023-03-04T15:13:55;16.00;97.00
11965;DHT22;6042;41.326;19.826;2023-03-04T15:16:26;16.00;97.10
11965;DHT22;6042;41.326;19.826;2023-03-04T15:18:58;16.00;97.00
11965;DHT22;6042;41.326;19.826;2023-03-04T15:21:34;16.00;96.90
11965;DHT22;6042;41.326;19.826;2023-03-04T15:24:03;15.90;96.70
11965;DHT22;6042;41.326;19.826;2023-03-04T15:26:36;15.80;96.90
11965;DHT22;6042;41.326;19.826;2023-03-04T15:29:13;15.60;96.80
11965;DHT22;6042;41.326;19.826;2023-03-04T15:31:42;15.30;97.20
11965;DHT22;6042;41.326;19.826;2023-03-04T15:34:11;15.10;97.60
11965;DHT22;6042;41.326;19.826;2023-03-04T15:36:43;15.10;97.80
11965;DHT22;6042;41.326;19.826;2023-03-04T15:39:14;15.00;98.10
11965;DHT22;6042;41.326;19.826;2023-03-04T15:41:44;14.90;98.00
11965;DHT22;6042;41.326;19.826;2023-03-04T15:44:15;14.80;97.90
11965;DHT22;6042;41.326;19.826;2023-03-04T15:46:44;14.80;98.20
11965;DHT22;6042;41.326;19.826;2023-03-04T15:49:12;14.60;98.40
11965;DHT22;6042;41.326;19.826;2023-03-04T15:51:41;14.50;98.90
11965;DHT22;6042;41.326;19.826;2023-03-04T15:56:41;14.20;99.30
11965;DHT22;6042;41.326;19.826;2023-03-04T15:59:11;14.10;99.90
11965;DHT22;6042;41.326;19.826;2023-03-04T16:01:42;13.80;99.90
11965;DHT22;6042;41.326;19.826;2023-03-04T16:04:12;13.60;99.90
11965;DHT22;6042;41.326;19.826;2023-03-04T16:06:42;13.50;99.90
11965;DHT22;6042;41.326;19.826;2023-03-04T16:09:13;13.10;99.90
11965;DHT22;6042;41.326;19.826;2023-03-04T16:11:44;12.80;99.90
11965;DHT22;6042;41.326;19.826;2023-03-04T16:14:14;12.60;99.90